Time;durP1;ratioP1;P1;durP2;ratioP2;P2;SDS_P1;SDS_P2;PMS_P1;PMS_P2;Temp;Humidity;BMP_temperature;BMP_pressure;BME280_temperature;BME280_humidity;BME280_pressure;Samples;Min_cycle;Max_cycle;Signal;HPM_P1;HPM_P2
2021/08/21 00:01:39;0.00;0.00;0.62;0.00;0.00;0.62;2.83;2.53;;;27.70;38.20;;;;;;2253207;61;20415;-54
2021/08/21 00:04:24;0.00;0.00;0.62;0.00;0.00;0.62;3.30;3.00;;;27.70;38.20;;;;;;2253053;61;20512;-50
2021/08/21 00:07:10;0.00;0.00;0.62;0.00;0.00;0.62;3.10;2.50;;;27.70;38.20;;;;;;2253952;61;20363;-52
2021/08/21 00:09:54;0.00;0.00;0.62;0.00;0.00;0.62;4.43;3.07;;;27.70;38.20;;;;;;2253162;61;20751;-53
2021/08/21 00:12:40;0.00;0.00;0.62;0.00;0.00;0.62;2.97;2.77;;;27.70;38.20;;;;;;2253758;61;20395;-55
2021/08/21 00:15:25;0.00;0.00;0.62;0.00;0.00;0.62;3.50;3.20;;;27.70;38.20;;;;;;2253586;61;20364;-54
2021/08/21 00:18:09;0.00;0.00;0.62;0.00;0.00;0.62;4.60;3.43;;;27.70;38.20;;;;;;2252882;61;20634;-55
2021/08/21 00:20:54;0.00;0.00;0.62;0.00;0.00;0.62;3.10;2.80;;;27.70;38.20;;;;;;2253868;61;20435;-53
2021/08/21 00:23:40;0.00;0.00;0.62;0.00;0.00;0.62;5.27;3.03;;;27.70;38.30;;;;;;2253400;61;20458;-58
2021/08/21 00:26:25;0.00;0.00;0.62;0.00;0.00;0.62;3.40;3.10;;;27.70;38.20;;;;;;2253005;61;20435;-55
2021/08/21 00:29:10;0.00;0.00;0.62;0.00;0.00;0.62;2.40;2.20;;;27.70;38.20;;;;;;2253191;61;20670;-52
2021/08/21 00:31:55;0.00;0.00;0.62;0.00;0.00;0.62;3.67;3.37;;;27.70;38.20;;;;;;2253633;61;20755;-55
2021/08/21 00:34:40;0.00;0.00;0.62;0.00;0.00;0.62;3.87;3.43;;;27.70;38.20;;;;;;2253168;61;20432;-56
2021/08/21 00:37:24;0.00;0.00;0.62;0.00;0.00;0.62;3.40;3.10;;;27.70;38.20;;;;;;2253033;61;20363;-53
2021/08/21 00:40:12;0.00;0.00;0.62;0.00;0.00;0.62;3.30;3.00;;;27.70;38.30;;;;;;2252704;61;20427;-57
2021/08/21 00:42:56;0.00;0.00;0.62;0.00;0.00;0.62;2.90;2.60;;;27.70;38.30;;;;;;2253637;61;20708;-54
2021/08/21 00:45:41;0.00;0.00;0.62;0.00;0.00;0.62;3.10;2.90;;;27.70;38.30;;;;;;2253495;61;20731;-57
2021/08/21 00:48:25;0.00;0.00;0.62;0.00;0.00;0.62;3.23;2.93;;;27.70;38.30;;;;;;2252894;61;20411;-56
2021/08/21 00:51:10;0.00;0.00;0.62;0.00;0.00;0.62;3.67;3.20;;;27.70;38.30;;;;;;2253356;61;20440;-56
2021/08/21 00:53:55;0.00;0.00;0.62;0.00;0.00;0.62;3.53;3.17;;;27.70;38.30;;;;;;2253368;61;20407;-58
2021/08/21 00:56:41;0.00;0.00;0.62;0.00;0.00;0.62;3.57;3.00;;;27.70;38.30;;;;;;2254001;61;20411;-53
2021/08/21 00:59:30;0.00;0.00;0.62;0.00;0.00;0.62;3.77;2.70;;;27.70;38.40;;;;;;2253507;61;20384;-56
2021/08/21 01:02:16;0.00;0.00;0.62;0.00;0.00;0.62;4.83;3.80;;;27.70;38.40;;;;;;2252899;61;20432;-56
2021/08/21 01:05:04;0.00;0.00;0.62;0.00;0.00;0.62;3.60;3.30;;;27.70;38.40;;;;;;2253727;61;20431;-55
2021/08/21 01:07:50;0.00;0.00;0.62;0.00;0.00;0.62;5.97;3.37;;;27.70;38.40;;;;;;2253265;61;20418;-57
2021/08/21 01:10:35;0.00;0.00;0.62;0.00;0.00;0.62;3.80;3.00;;;27.70;38.40;;;;;;2252917;61;20363;-53
2021/08/21 01:13:21;0.00;0.00;0.62;0.00;0.00;0.62;3.10;2.80;;;27.70;38.40;;;;;;2253469;61;20359;-55
2021/08/21 01:16:06;0.00;0.00;0.62;0.00;0.00;0.62;3.10;2.80;;;27.70;38.40;;;;;;2253844;61;20364;-57
2021/08/21 01:18:51;0.00;0.00;0.62;0.00;0.00;0.62;3.30;2.90;;;27.70;38.40;;;;;;2253390;61;20599;-54
2021/08/21 01:21:36;0.00;0.00;0.62;0.00;0.00;0.62;3.57;3.23;;;27.70;38.30;;;;;;2253433;61;20681;-55
2021/08/21 01:24:20;0.00;0.00;0.62;0.00;0.00;0.62;11.50;3.20;;;27.70;38.40;;;;;;2252651;61;20419;-50
2021/08/21 01:27:06;0.00;0.00;0.62;0.00;0.00;0.62;3.53;3.23;;;27.70;38.40;;;;;;2253440;61;20386;-51
2021/08/21 01:30:06;0.00;0.00;0.62;0.00;0.00;0.62;3.37;3.07;;;27.70;38.30;;;;;;2253318;61;20384;-52
2021/08/21 01:32:59;0.00;0.00;0.62;0.00;0.00;0.62;3.03;2.73;;;27.70;38.30;;;;;;2252621;61;20403;-52
2021/08/21 01:35:45;0.00;0.00;0.62;0.00;0.00;0.62;3.33;3.00;;;27.70;38.30;;;;;;2253573;61;20395;-52
2021/08/21 01:38:30;0.00;0.00;0.62;0.00;0.00;0.62;3.17;2.87;;;27.70;38.20;;;;;;2253758;61;20380;-53
2021/08/21 01:41:33;0.00;0.00;0.62;0.00;0.00;0.62;4.50;3.50;;;27.70;38.20;;;;;;2253985;61;20396;-57
2021/08/21 01:44:20;0.00;0.00;0.62;0.00;0.00;0.62;3.40;3.10;;;27.70;38.20;;;;;;2253545;61;20419;-55
2021/08/21 01:47:04;0.00;0.00;0.62;0.00;0.00;0.62;3.90;3.50;;;27.70;38.20;;;;;;2252626;61;20455;-55
2021/08/21 01:49:59;0.00;0.00;0.62;0.00;0.00;0.62;3.30;3.00;;;27.70;38.20;;;;;;2253465;61;20423;-50
2021/08/21 01:52:46;0.00;0.00;0.62;0.00;0.00;0.62;3.40;3.10;;;27.70;38.30;;;;;;2253218;61;20595;-50
2021/08/21 01:55:45;0.00;0.00;0.62;0.00;0.00;0.62;3.87;3.57;;;27.70;38.30;;;;;;2253014;61;20360;-55
2021/08/21 01:58:49;0.00;0.00;0.62;0.00;0.00;0.62;3.33;3.03;;;27.70;38.30;;;;;;2253540;61;20539;-50
2021/08/21 02:02:16;0.00;0.00;0.62;0.00;0.00;0.62;3.73;3.43;;;27.70;38.30;;;;;;2252358;61;20596;-50
2021/08/21 02:05:10;0.00;0.00;0.62;0.00;0.00;0.62;4.20;3.40;;;27.70;38.30;;;;;;2253284;61;20399;-55
2021/08/21 02:07:55;0.00;0.00;0.62;0.00;0.00;0.62;3.90;3.50;;;27.70;38.90;;;;;;2253149;61;20429;-55
2021/08/21 02:10:40;0.00;0.00;0.62;0.00;0.00;0.62;3.30;3.10;;;27.70;38.30;;;;;;2253311;61;20367;-51
2021/08/21 02:13:25;0.00;0.00;0.62;0.00;0.00;0.62;4.03;3.63;;;27.70;38.30;;;;;;2253197;61;20411;-53
2021/08/21 02:16:10;0.00;0.00;0.62;0.00;0.00;0.62;3.93;3.40;;;27.70;38.30;;;;;;2252689;61;20439;-56
2021/08/21 02:18:57;0.00;0.00;0.62;0.00;0.00;0.62;3.27;2.97;;;27.70;38.30;;;;;;2253236;61;20384;-53
2021/08/21 02:21:58;0.00;0.00;0.62;0.00;0.00;0.62;3.77;3.10;;;27.70;38.20;;;;;;2253140;61;20371;-53
2021/08/21 02:24:51;0.00;0.00;0.62;0.00;0.00;0.62;3.13;2.80;;;27.70;38.20;;;;;;2252666;61;20791;-55
2021/08/21 02:27:39;0.00;0.00;0.62;0.00;0.00;0.62;3.33;2.50;;;27.70;38.20;;;;;;2253152;61;20363;-51
2021/08/21 02:30:24;0.00;0.00;0.62;0.00;0.00;0.62;3.83;3.40;;;27.70;38.20;;;;;;2253084;61;20378;-56
2021/08/21 02:33:09;0.00;0.00;0.62;0.00;0.00;0.62;3.40;3.10;;;27.70;38.30;;;;;;2253367;61;20442;-51
2021/08/21 02:35:56;0.00;0.00;0.62;0.00;0.00;0.62;3.13;2.83;;;27.70;38.30;;;;;;2253123;61;20363;-54
2021/08/21 02:38:41;0.00;0.00;0.62;0.00;0.00;0.62;3.40;3.10;;;27.60;38.20;;;;;;2252584;61;20384;-54
2021/08/21 02:41:25;0.00;0.00;0.62;0.00;0.00;0.62;3.83;3.43;;;27.60;38.20;;;;;;2253333;61;20398;-54
2021/08/21 02:44:10;0.00;0.00;0.62;0.00;0.00;0.62;3.30;2.97;;;27.60;38.20;;;;;;2253407;61;20435;-48
2021/08/21 02:46:55;0.00;0.00;0.62;0.00;0.00;0.62;3.33;2.97;;;27.60;38.20;;;;;;2252521;61;20363;-55
2021/08/21 02:49:39;0.00;0.00;0.62;0.00;0.00;0.62;3.67;3.37;;;27.60;38.20;;;;;;2253299;61;20403;-51
2021/08/21 02:52:25;0.00;0.00;0.62;0.00;0.00;0.62;3.33;3.03;;;27.60;38.20;;;;;;2253554;61;20590;-54
2021/08/21 02:55:10;0.00;0.00;0.62;0.00;0.00;0.62;3.23;2.93;;;27.60;38.30;;;;;;2253304;61;20380;-53
2021/08/21 02:57:58;0.00;0.00;0.62;0.00;0.00;0.62;3.60;3.30;;;27.60;38.30;;;;;;2252978;61;20367;-52
2021/08/21 03:00:51;0.00;0.00;0.62;0.00;0.00;0.62;6.20;3.40;;;27.60;38.30;;;;;;2252622;61;20380;-51
2021/08/21 03:03:35;0.00;0.00;0.62;0.00;0.00;0.62;3.50;3.20;;;27.60;38.30;;;;;;2253482;61;20504;-51
2021/08/21 03:06:20;0.00;0.00;0.62;0.00;0.00;0.62;3.70;3.40;;;27.60;38.30;;;;;;2253091;61;20448;-54
2021/08/21 03:09:06;0.00;0.00;0.62;0.00;0.00;0.62;3.20;2.70;;;27.60;38.30;;;;;;2252280;61;20383;-54
2021/08/21 03:11:51;0.00;0.00;0.62;0.00;0.00;0.62;3.50;2.80;;;27.60;38.30;;;;;;2253255;61;20731;-54
2021/08/21 03:14:44;0.00;0.00;0.62;0.00;0.00;0.62;3.60;3.30;;;27.60;38.30;;;;;;2253225;61;20425;-51
2021/08/21 03:17:28;0.00;0.00;0.62;0.00;0.00;0.62;3.00;2.70;;;27.50;38.30;;;;;;2253050;61;20376;-50
2021/08/21 03:20:13;0.00;0.00;0.62;0.00;0.00;0.62;3.90;3.47;;;27.50;38.30;;;;;;2253070;61;20388;-52
2021/08/21 03:23:00;0.00;0.00;0.62;0.00;0.00;0.62;3.67;3.37;;;27.50;39.00;;;;;;2252444;61;20379;-55
2021/08/21 03:25:49;0.00;0.00;0.62;0.00;0.00;0.62;3.70;3.37;;;27.50;38.30;;;;;;2253195;61;20439;-52
2021/08/21 03:28:35;0.00;0.00;0.62;0.00;0.00;0.62;3.33;3.07;;;27.50;38.30;;;;;;2253535;61;20387;-52
2021/08/21 03:31:20;0.00;0.00;0.62;0.00;0.00;0.62;3.37;3.07;;;27.50;38.30;;;;;;2253228;61;20364;-54
2021/08/21 03:34:04;0.00;0.00;0.62;0.00;0.00;0.62;3.57;3.27;;;27.50;38.40;;;;;;2253922;61;20364;-50
2021/08/21 03:36:49;0.00;0.00;0.62;0.00;0.00;0.62;3.60;3.10;;;27.50;38.40;;;;;;2254066;61;20587;-54
2021/08/21 03:39:34;0.00;0.00;0.62;0.00;0.00;0.62;2.90;2.60;;;27.50;38.40;;;;;;2253811;61;20383;-55
2021/08/21 03:42:20;0.00;0.00;0.62;0.00;0.00;0.62;3.20;2.90;;;27.50;38.30;;;;;;2253676;61;20395;-53
2021/08/21 03:45:11;0.00;0.00;0.62;0.00;0.00;0.62;2.80;2.60;;;27.50;38.40;;;;;;2252943;61;20863;-51
2021/08/21 03:47:56;0.00;0.00;0.62;0.00;0.00;0.62;2.90;2.67;;;27.50;38.40;;;;;;2253745;61;20395;-54
2021/08/21 03:50:40;0.00;0.00;0.62;0.00;0.00;0.62;3.47;3.17;;;27.50;38.40;;;;;;2253593;61;20364;-52
2021/08/21 03:53:26;0.00;0.00;0.62;0.00;0.00;0.62;3.50;3.20;;;27.50;39.00;;;;;;2253107;61;20379;-52
2021/08/21 03:56:23;0.00;0.00;0.62;0.00;0.00;0.62;3.50;3.10;;;27.50;38.40;;;;;;2253964;61;20780;-55
2021/08/21 03:59:13;0.00;0.00;0.62;0.00;0.00;0.62;3.63;3.33;;;27.50;38.40;;;;;;2253416;61;20735;-57
2021/08/21 04:02:05;0.00;0.00;0.62;0.00;0.00;0.62;3.30;3.00;;;27.40;38.30;;;;;;2253925;61;20372;-54
2021/08/21 04:04:50;0.00;0.00;0.62;0.00;0.00;0.62;4.30;3.40;;;27.50;38.40;;;;;;2253551;61;20387;-51
2021/08/21 04:07:35;0.00;0.00;0.62;0.00;0.00;0.62;3.43;3.13;;;27.40;38.30;;;;;;2252822;61;20410;-56
2021/08/21 04:10:20;0.00;0.00;0.62;0.00;0.00;0.62;3.50;3.20;;;27.40;38.30;;;;;;2253935;61;20367;-51
2021/08/21 04:13:05;0.00;0.00;0.62;0.00;0.00;0.62;3.43;3.13;;;27.40;38.30;;;;;;2256232;61;20360;-50
2021/08/21 04:15:51;0.00;0.00;0.62;0.00;0.00;0.62;3.27;2.97;;;27.40;38.30;;;;;;2253104;61;20372;-56
2021/08/21 04:18:35;0.00;0.00;0.62;0.00;0.00;0.62;3.60;3.30;;;27.40;38.30;;;;;;2253783;61;20387;-53
2021/08/21 04:21:20;0.00;0.00;0.62;0.00;0.00;0.62;3.20;2.90;;;27.40;38.30;;;;;;2253565;61;20363;-56
2021/08/21 04:23:46;0.00;0.00;0.62;0.00;0.00;0.62;4.00;3.70;;;27.40;38.30;;;;;;2253622;61;20399;-53
2021/08/21 04:26:30;0.00;0.00;0.62;0.00;0.00;0.62;3.50;3.20;;;27.40;38.40;;;;;;2253492;61;20403;-58
2021/08/21 04:29:17;0.00;0.00;0.62;0.00;0.00;0.62;2.87;2.57;;;27.40;38.40;;;;;;2252907;61;20383;-54
2021/08/21 04:32:05;0.00;0.00;0.62;0.00;0.00;0.62;3.83;3.47;;;27.40;38.40;;;;;;2254143;61;20707;-50
2021/08/21 04:34:50;0.00;0.00;0.62;0.00;0.00;0.62;3.57;3.07;;;27.40;38.40;;;;;;2256176;61;20368;-56
2021/08/21 04:37:36;0.00;0.00;0.62;0.00;0.00;0.62;3.20;2.93;;;27.40;38.40;;;;;;2252946;61;20360;-54
2021/08/21 04:40:21;0.00;0.00;0.62;0.00;0.00;0.62;3.17;2.90;;;27.40;38.40;;;;;;2253834;61;20452;-52
2021/08/21 04:43:07;0.00;0.00;0.62;0.00;0.00;0.62;3.47;3.17;;;27.40;38.40;;;;;;2253431;61;20356;-55
2021/08/21 04:45:51;0.00;0.00;0.62;0.00;0.00;0.62;3.33;3.03;;;27.40;38.40;;;;;;2253112;61;20383;-53
2021/08/21 04:48:37;0.00;0.00;0.62;0.00;0.00;0.62;4.20;3.80;;;27.40;38.40;;;;;;2253159;61;20394;-51
2021/08/21 04:51:22;0.00;0.00;0.62;0.00;0.00;0.62;3.40;3.03;;;27.40;38.50;;;;;;2253088;61;20583;-55
2021/08/21 04:54:07;0.00;0.00;0.62;0.00;0.00;0.62;3.40;3.10;;;27.40;38.50;;;;;;2253734;61;20408;-56
2021/08/21 04:56:52;0.00;0.00;0.62;0.00;0.00;0.62;3.27;2.97;;;27.40;38.50;;;;;;2253627;61;20363;-52
2021/08/21 04:59:41;0.00;0.00;0.62;0.00;0.00;0.62;3.70;3.40;;;27.40;38.50;;;;;;2253310;61;20427;-52
2021/08/21 05:02:26;0.00;0.00;0.62;0.00;0.00;0.62;3.90;3.60;;;27.40;38.60;;;;;;2253572;61;20477;-52
2021/08/21 05:05:12;0.00;0.00;0.62;0.00;0.00;0.62;3.73;3.40;;;27.30;38.50;;;;;;2253741;61;20434;-55
2021/08/21 05:07:57;0.00;0.00;0.62;0.00;0.00;0.62;3.50;3.13;;;27.30;38.50;;;;;;2252843;61;20363;-53
2021/08/21 05:10:42;0.00;0.00;0.62;0.00;0.00;0.62;3.47;3.17;;;27.30;38.50;;;;;;2253376;61;20708;-57
2021/08/21 05:13:27;0.00;0.00;0.62;0.00;0.00;0.62;3.67;3.33;;;27.30;38.50;;;;;;2252958;61;20368;-52
2021/08/21 05:16:12;0.00;0.00;0.62;0.00;0.00;0.62;4.10;3.30;;;27.30;38.60;;;;;;2253500;61;20352;-53
2021/08/21 05:19:14;0.00;0.00;0.62;0.00;0.00;0.62;3.40;3.10;;;27.30;38.60;;;;;;2253312;61;20450;-56
2021/08/21 05:25:05;0.00;0.00;0.62;0.00;0.00;0.62;3.50;3.00;;;27.30;38.60;;;;;;2256156;61;20616;-52
2021/08/21 05:27:49;0.00;0.00;0.62;0.00;0.00;0.62;3.70;3.40;;;27.30;38.60;;;;;;2253364;61;20367;-55
2021/08/21 05:30:38;0.00;0.00;0.62;0.00;0.00;0.62;3.77;3.47;;;27.30;39.30;;;;;;2253440;61;20388;-57
2021/08/21 05:33:23;0.00;0.00;0.62;0.00;0.00;0.62;3.73;3.40;;;27.30;38.60;;;;;;2253753;61;20367;-55
2021/08/21 05:36:07;0.00;0.00;0.62;0.00;0.00;0.62;3.13;2.83;;;27.30;38.60;;;;;;2253288;61;20367;-50
2021/08/21 05:38:55;0.00;0.00;0.62;0.00;0.00;0.62;2.73;2.53;;;27.30;38.60;;;;;;2253710;61;20464;-55
2021/08/21 05:41:40;0.00;0.00;0.62;0.00;0.00;0.62;3.23;2.93;;;27.30;38.60;;;;;;2253824;61;20368;-53
2021/08/21 05:44:24;0.00;0.00;0.62;0.00;0.00;0.62;4.03;3.63;;;27.30;38.50;;;;;;2252561;61;20396;-56
2021/08/21 05:47:09;0.00;0.00;0.62;0.00;0.00;0.62;3.70;3.40;;;27.30;38.60;;;;;;2253719;61;20363;-55
2021/08/21 05:49:54;0.00;0.00;0.62;0.00;0.00;0.62;3.73;3.43;;;27.30;38.60;;;;;;2253599;61;20387;-56
2021/08/21 05:52:38;0.00;0.00;0.62;0.00;0.00;0.62;3.03;2.73;;;27.30;38.60;;;;;;2253560;61;20378;-53
2021/08/21 05:55:24;0.00;0.00;0.62;0.00;0.00;0.62;3.50;3.20;;;27.30;38.60;;;;;;2253754;61;20367;-54
2021/08/21 05:58:15;0.00;0.00;0.62;0.00;0.00;0.62;3.13;2.83;;;27.30;38.60;;;;;;2252548;61;20418;-51
2021/08/21 06:01:06;0.00;0.00;0.62;0.00;0.00;0.62;3.70;3.40;;;27.30;38.60;;;;;;2253486;61;20359;-55
2021/08/21 06:03:51;0.00;0.00;0.62;0.00;0.00;0.62;3.43;3.13;;;27.30;38.60;;;;;;2253492;61;20614;-54
2021/08/21 06:06:37;0.00;0.00;0.62;0.00;0.00;0.62;4.17;3.77;;;27.30;38.60;;;;;;2253016;61;20423;-53
2021/08/21 06:09:23;0.00;0.00;0.62;0.00;0.00;0.62;3.40;3.10;;;27.30;38.60;;;;;;2253430;61;20384;-49
2021/08/21 06:12:10;0.00;0.00;0.62;0.00;0.00;0.62;4.30;4.00;;;27.30;38.60;;;;;;2253188;61;20407;-55
2021/08/21 06:14:54;0.00;0.00;0.62;0.00;0.00;0.62;3.70;3.40;;;27.30;38.60;;;;;;2253830;61;20748;-55
2021/08/21 06:17:39;0.00;0.00;0.62;0.00;0.00;0.62;4.13;3.13;;;27.30;38.60;;;;;;2253543;61;20476;-55
2021/08/21 06:20:24;0.00;0.00;0.62;0.00;0.00;0.62;3.60;3.30;;;27.30;38.60;;;;;;2253024;61;20755;-55
2021/08/21 06:23:08;0.00;0.00;0.62;0.00;0.00;0.62;3.83;3.53;;;27.30;38.60;;;;;;2253840;61;20660;-56
2021/08/21 06:25:53;0.00;0.00;0.62;0.00;0.00;0.62;3.80;3.50;;;27.30;38.70;;;;;;2253496;61;20356;-54
2021/08/21 06:28:39;0.00;0.00;0.62;0.00;0.00;0.62;4.23;3.77;;;27.30;38.70;;;;;;2252852;61;20427;-57
2021/08/21 06:31:23;0.00;0.00;0.62;0.00;0.00;0.62;4.90;4.00;;;27.30;38.70;;;;;;2253814;61;20446;-57
2021/08/21 06:34:08;0.00;0.00;0.62;0.00;0.00;0.62;4.40;3.53;;;27.30;38.70;;;;;;2253744;61;20395;-51
2021/08/21 06:36:53;0.00;0.00;0.62;0.00;0.00;0.62;4.83;4.40;;;27.30;38.80;;;;;;2253051;61;20399;-53
2021/08/21 06:39:37;0.00;0.00;0.62;0.00;0.00;0.62;4.73;4.33;;;27.30;38.80;;;;;;2253509;61;20378;-53
2021/08/21 06:42:22;0.00;0.00;0.62;0.00;0.00;0.62;4.57;3.90;;;27.30;38.80;;;;;;2253160;61;20411;-53
2021/08/21 06:45:27;0.00;0.00;0.62;0.00;0.00;0.62;4.37;3.83;;;27.30;38.80;;;;;;2253658;61;20468;-55
2021/08/21 06:48:12;0.00;0.00;0.62;0.00;0.00;0.62;4.30;3.90;;;27.30;38.80;;;;;;2253356;61;20371;-52
2021/08/21 06:50:56;0.00;0.00;0.62;0.00;0.00;0.62;3.67;3.37;;;27.30;38.80;;;;;;2252988;61;20356;-55
2021/08/21 06:53:40;0.00;0.00;0.62;0.00;0.00;0.62;4.60;3.80;;;27.30;38.80;;;;;;2253719;61;20391;-56
2021/08/21 06:56:25;0.00;0.00;0.62;0.00;0.00;0.62;8.10;4.40;;;27.40;38.80;;;;;;2253557;61;20367;-54
2021/08/21 06:59:09;0.00;0.00;0.62;0.00;0.00;0.62;3.90;3.50;;;27.40;38.80;;;;;;2253171;61;20388;-50
2021/08/21 07:01:55;0.00;0.00;0.62;0.00;0.00;0.62;5.23;4.73;;;27.40;38.90;;;;;;2254019;61;20637;-50
2021/08/21 07:04:41;0.00;0.00;0.62;0.00;0.00;0.62;5.13;4.73;;;27.40;38.90;;;;;;2253598;61;20487;-52
2021/08/21 07:07:25;0.00;0.00;0.62;0.00;0.00;0.62;5.40;4.80;;;27.40;39.00;;;;;;2254250;61;20367;-58
2021/08/21 07:10:11;0.00;0.00;0.62;0.00;0.00;0.62;31.20;7.43;;;27.40;39.00;;;;;;2253798;61;20438;-66
2021/08/21 07:12:55;0.00;0.00;0.62;0.00;0.00;0.62;6.40;5.53;;;27.30;39.20;;;;;;2253768;61;20239;-69
2021/08/21 07:15:40;0.00;0.00;0.62;0.00;0.00;0.62;7.20;6.50;;;27.40;39.10;;;;;;2254451;61;20747;-67
2021/08/21 07:18:25;0.00;0.00;0.62;0.00;0.00;0.62;7.40;5.73;;;27.40;39.10;;;;;;2254070;61;20787;-68
2021/08/21 07:21:10;0.00;0.00;0.62;0.00;0.00;0.62;6.53;5.93;;;27.40;39.10;;;;;;2253796;61;20472;-66
2021/08/21 07:23:55;0.00;0.00;0.62;0.00;0.00;0.62;6.80;6.20;;;27.40;39.20;;;;;;2254193;61;20593;-68
2021/08/21 07:26:40;0.00;0.00;0.62;0.00;0.00;0.62;7.23;5.87;;;27.40;39.20;;;;;;2253654;61;20368;-64
2021/08/21 07:29:25;0.00;0.00;0.62;0.00;0.00;0.62;7.73;6.37;;;27.40;39.30;;;;;;2254214;61;20601;-66
2021/08/21 07:32:09;0.00;0.00;0.62;0.00;0.00;0.62;8.43;7.63;;;27.50;39.30;;;;;;2254086;61;20366;-69
2021/08/21 07:34:55;0.00;0.00;0.62;0.00;0.00;0.62;10.10;8.40;;;27.50;39.30;;;;;;2253614;61;20363;-66
2021/08/21 07:37:39;0.00;0.00;0.62;0.00;0.00;0.62;12.83;8.53;;;27.50;39.30;;;;;;2254252;61;20585;-67
2021/08/21 07:40:24;0.00;0.00;0.62;0.00;0.00;0.62;9.13;8.33;;;27.50;39.30;;;;;;2254194;61;20727;-65
2021/08/21 07:43:08;0.00;0.00;0.62;0.00;0.00;0.62;9.03;8.13;;;27.50;39.30;;;;;;2253776;61;20363;-65
2021/08/21 07:45:54;0.00;0.00;0.62;0.00;0.00;0.62;9.63;8.70;;;27.50;39.30;;;;;;2253873;61;20464;-66
2021/08/21 07:48:38;0.00;0.00;0.62;0.00;0.00;0.62;9.27;8.37;;;27.50;39.30;;;;;;2253603;61;20383;-67
2021/08/21 07:51:24;0.00;0.00;0.62;0.00;0.00;0.62;8.77;7.87;;;27.50;39.30;;;;;;2254381;61;20367;-65
2021/08/21 07:54:09;0.00;0.00;0.62;0.00;0.00;0.62;8.93;6.97;;;27.50;39.30;;;;;;2253990;61;20476;-64
2021/08/21 07:56:54;0.00;0.00;0.62;0.00;0.00;0.62;8.47;7.50;;;27.50;39.40;;;;;;2253468;61;20391;-64
2021/08/21 07:59:38;0.00;0.00;0.62;0.00;0.00;0.62;8.87;7.37;;;27.50;39.40;;;;;;2254318;61;20445;-66
2021/08/21 08:02:23;0.00;0.00;0.62;0.00;0.00;0.62;8.10;7.30;;;27.50;39.40;;;;;;2253968;61;20411;-65
2021/08/21 08:05:09;0.00;0.00;0.62;0.00;0.00;0.62;11.30;9.17;;;27.50;39.40;;;;;;2253469;61;20432;-63
2021/08/21 08:07:55;0.00;0.00;0.62;0.00;0.00;0.62;8.30;7.50;;;27.60;39.50;;;;;;2254034;61;20837;-64
2021/08/21 08:10:39;0.00;0.00;0.62;0.00;0.00;0.62;10.07;9.17;;;27.60;39.50;;;;;;2254236;61;20367;-64
2021/08/21 08:13:24;0.00;0.00;0.62;0.00;0.00;0.62;9.60;8.20;;;27.60;39.50;;;;;;2254141;61;20512;-65
2021/08/21 08:16:09;0.00;0.00;0.62;0.00;0.00;0.62;10.07;9.17;;;27.60;39.50;;;;;;2253905;61;20595;-64
2021/08/21 08:18:53;0.00;0.00;0.62;0.00;0.00;0.62;9.27;8.37;;;27.60;39.50;;;;;;2253442;61;20376;-65
2021/08/21 08:21:38;0.00;0.00;0.62;0.00;0.00;0.62;10.73;9.63;;;27.60;39.50;;;;;;2254170;61;20360;-64
2021/08/21 08:24:24;0.00;0.00;0.62;0.00;0.00;0.62;11.70;10.17;;;27.60;39.50;;;;;;2253877;61;20419;-65
2021/08/21 08:27:08;0.00;0.00;0.62;0.00;0.00;0.62;10.73;9.73;;;27.60;39.50;;;;;;2253394;61;20431;-66
2021/08/21 08:29:53;0.00;0.00;0.62;0.00;0.00;0.62;10.63;9.50;;;27.60;39.50;;;;;;2253965;61;20383;-66
2021/08/21 08:32:37;0.00;0.00;0.62;0.00;0.00;0.62;11.40;10.20;;;27.60;39.50;;;;;;2254003;61;20367;-66
2021/08/21 08:35:22;0.00;0.00;0.62;0.00;0.00;0.62;11.80;10.57;;;27.60;39.40;;;;;;2253646;61;20436;-64
2021/08/21 08:38:06;0.00;0.00;0.62;0.00;0.00;0.62;12.23;11.00;;;27.60;39.40;;;;;;2253712;61;20448;-64
2021/08/21 08:40:53;0.00;0.00;0.62;0.00;0.00;0.62;10.90;9.70;;;27.50;39.30;;;;;;2253557;61;20407;-66
2021/08/21 08:43:40;0.00;0.00;0.62;0.00;0.00;0.62;9.80;8.87;;;27.50;39.30;;;;;;2253962;61;20363;-64
2021/08/21 08:46:24;0.00;0.00;0.62;0.00;0.00;0.62;9.60;8.77;;;27.60;39.40;;;;;;2253845;61;20383;-65
2021/08/21 08:49:10;0.00;0.00;0.62;0.00;0.00;0.62;10.27;9.27;;;27.50;39.30;;;;;;2253320;61;20387;-64
2021/08/21 08:51:56;0.00;0.00;0.62;0.00;0.00;0.62;11.13;10.10;;;27.50;39.30;;;;;;2254016;61;20364;-66
2021/08/21 08:54:41;0.00;0.00;0.62;0.00;0.00;0.62;13.73;12.33;;;27.50;39.30;;;;;;2253906;61;20678;-64
2021/08/21 08:57:36;0.00;0.00;0.62;0.00;0.00;0.62;14.70;13.30;;;27.60;39.40;;;;;;2253323;61;20360;-64
2021/08/21 09:00:24;0.00;0.00;0.62;0.00;0.00;0.62;13.70;12.13;;;27.50;39.30;;;;;;2253944;61;20724;-69
2021/08/21 09:03:19;0.00;0.00;0.62;0.00;0.00;0.62;16.47;14.07;;;27.50;39.50;;;;;;2252913;61;20577;-72
2021/08/21 09:06:04;0.00;0.00;0.62;0.00;0.00;0.62;15.40;13.90;;;27.50;39.70;;;;;;2253853;61;20368;-70
2021/08/21 09:09:08;0.00;0.00;0.62;0.00;0.00;0.62;14.70;13.30;;;27.50;39.80;;;;;;2253844;61;20387;-72
2021/08/21 09:11:55;0.00;0.00;0.62;0.00;0.00;0.62;13.10;11.97;;;27.50;39.90;;;;;;2253868;61;20360;-68
2021/08/21 09:14:41;0.00;0.00;0.62;0.00;0.00;0.62;14.77;12.90;;;27.50;39.80;;;;;;2253838;61;20623;-71
2021/08/21 09:17:25;0.00;0.00;0.62;0.00;0.00;0.62;12.40;11.23;;;27.50;39.70;;;;;;2254218;61;20367;-71
2021/08/21 09:20:11;0.00;0.00;0.62;0.00;0.00;0.62;13.00;11.80;;;27.50;39.70;;;;;;2253828;61;20775;-65
2021/08/21 09:23:19;0.00;0.00;0.62;0.00;0.00;0.62;12.73;11.53;;;27.50;39.50;;;;;;2253867;61;20391;-66
2021/08/21 09:26:08;0.00;0.00;0.62;0.00;0.00;0.62;8.93;8.03;;;27.50;39.50;;;;;;2253345;61;20362;-66
2021/08/21 09:28:57;0.00;0.00;0.62;0.00;0.00;0.62;12.80;10.70;;;27.50;39.70;;;;;;2253021;61;20391;-65
2021/08/21 09:31:43;0.00;0.00;0.62;0.00;0.00;0.62;11.77;10.53;;;27.50;39.80;;;;;;2253473;61;20404;-66
2021/08/21 09:34:28;0.00;0.00;0.62;0.00;0.00;0.62;12.70;10.70;;;27.50;39.80;;;;;;2253496;61;20730;-67
2021/08/21 09:37:17;0.00;0.00;0.62;0.00;0.00;0.62;11.40;10.00;;;27.50;39.80;;;;;;2253256;61;20363;-64
2021/08/21 09:40:03;0.00;0.00;0.62;0.00;0.00;0.62;11.10;10.00;;;27.50;39.80;;;;;;2253469;61;20411;-67
2021/08/21 09:42:48;0.00;0.00;0.62;0.00;0.00;0.62;11.50;10.40;;;27.50;39.70;;;;;;2253556;61;20406;-67
2021/08/21 09:45:39;0.00;0.00;0.62;0.00;0.00;0.62;10.43;9.50;;;27.50;39.70;;;;;;2253143;61;20455;-65
2021/08/21 09:48:24;0.00;0.00;0.62;0.00;0.00;0.62;10.80;9.80;;;27.50;39.70;;;;;;2253286;61;20449;-66
2021/08/21 09:51:31;0.00;0.00;0.62;0.00;0.00;0.62;10.23;9.30;;;27.50;39.70;;;;;;2253460;61;20367;-66
2021/08/21 09:54:18;0.00;0.00;0.62;0.00;0.00;0.62;10.70;9.80;;;27.50;39.70;;;;;;2253319;61;20437;-67
2021/08/21 09:57:03;0.00;0.00;0.62;0.00;0.00;0.62;12.27;10.97;;;27.50;39.70;;;;;;2253393;61;20390;-67
2021/08/21 09:59:56;0.00;0.00;0.62;0.00;0.00;0.62;11.63;10.53;;;27.50;39.70;;;;;;2253263;61;20727;-65
2021/08/21 10:02:44;0.00;0.00;0.62;0.00;0.00;0.62;11.73;10.63;;;27.50;39.70;;;;;;2253466;61;20371;-67
2021/08/21 10:05:31;0.00;0.00;0.62;0.00;0.00;0.62;11.80;9.97;;;27.50;39.60;;;;;;2253302;61;20744;-66
2021/08/21 10:08:18;0.00;0.00;0.62;0.00;0.00;0.62;11.37;10.17;;;27.50;39.70;;;;;;2252968;61;22342;-66
2021/08/21 10:11:03;0.00;0.00;0.62;0.00;0.00;0.62;11.87;10.77;;;27.50;39.70;;;;;;2253430;61;20364;-65
2021/08/21 10:13:48;0.00;0.00;0.62;0.00;0.00;0.62;11.57;10.57;;;27.50;39.70;;;;;;2253310;61;20412;-67
2021/08/21 10:16:33;0.00;0.00;0.62;0.00;0.00;0.62;10.83;9.73;;;27.50;39.70;;;;;;2253415;61;20404;-65
2021/08/21 10:19:20;0.00;0.00;0.62;0.00;0.00;0.62;10.00;9.10;;;27.50;39.60;;;;;;2253477;61;20463;-66
2021/08/21 10:22:09;0.00;0.00;0.62;0.00;0.00;0.62;9.80;8.97;;;27.50;39.60;;;;;;2253112;61;20414;-67
2021/08/21 10:24:54;0.00;0.00;0.62;0.00;0.00;0.62;9.03;8.23;;;27.60;39.60;;;;;;2253386;61;20461;-67
2021/08/21 10:27:43;0.00;0.00;0.62;0.00;0.00;0.62;11.87;8.67;;;27.60;39.50;;;;;;2253143;61;20458;-66
2021/08/21 10:30:42;0.00;0.00;0.62;0.00;0.00;0.62;10.17;9.20;;;27.60;39.50;;;;;;2253062;61;20746;-66
2021/08/21 10:33:29;0.00;0.00;0.62;0.00;0.00;0.62;8.10;7.30;;;27.60;39.50;;;;;;2253354;61;20368;-66
2021/08/21 10:36:40;0.00;0.00;0.62;0.00;0.00;0.62;8.80;8.00;;;27.60;39.40;;;;;;2253218;61;20771;-66
2021/08/21 10:39:35;0.00;0.00;0.62;0.00;0.00;0.62;9.00;8.10;;;27.70;39.40;;;;;;2253310;61;20387;-65
2021/08/21 10:42:25;0.00;0.00;0.62;0.00;0.00;0.62;8.70;8.00;;;27.70;39.20;;;;;;2253310;61;20400;-64
2021/08/21 10:45:10;0.00;0.00;0.62;0.00;0.00;0.62;7.80;7.10;;;27.70;39.10;;;;;;2253192;61;20431;-65
2021/08/21 10:47:54;0.00;0.00;0.62;0.00;0.00;0.62;8.20;7.50;;;27.70;39.10;;;;;;2253191;61;20583;-64
2021/08/21 10:50:43;0.00;0.00;0.62;0.00;0.00;0.62;10.47;8.70;;;27.70;39.00;;;;;;2253278;61;20363;-63
2021/08/21 10:53:30;0.00;0.00;0.62;0.00;0.00;0.62;8.67;7.97;;;27.70;39.00;;;;;;2253151;61;20351;-67
2021/08/21 10:56:34;0.00;0.00;0.62;0.00;0.00;0.62;9.10;8.30;;;27.70;38.90;;;;;;2253321;61;20751;-64
2021/08/21 10:59:39;0.00;0.00;0.62;0.00;0.00;0.62;8.43;7.53;;;27.70;38.90;;;;;;2253038;61;20376;-66
2021/08/21 11:02:41;0.00;0.00;0.62;0.00;0.00;0.62;8.20;7.40;;;27.70;38.90;;;;;;2253312;61;20363;-66